createdAt,value
2023-09-30T00:00:25.931Z,101221.94
2023-09-30T00:02:54.182Z,101222.75
2023-09-30T00:05:22.933Z,101215.81
2023-09-30T00:07:51.034Z,101219.53
2023-09-30T00:10:19.250Z,101226.16
2023-09-30T00:12:47.744Z,101235.41
2023-09-30T00:15:16.123Z,101203.16
2023-09-30T00:17:44.462Z,101225.19
2023-09-30T00:20:13.156Z,101219.19
2023-09-30T00:22:41.341Z,101227.66
2023-09-30T00:25:09.944Z,101228.47
2023-09-30T00:27:38.404Z,101237.06
2023-09-30T00:30:07.726Z,101213.06
2023-09-30T00:32:36.172Z,101201.72
2023-09-30T00:35:04.852Z,101228.78
2023-09-30T00:37:32.944Z,101217.25
2023-09-30T00:40:01.108Z,101209.31
2023-09-30T00:42:29.186Z,101221.00
2023-09-30T00:44:57.368Z,101197.03
2023-09-30T00:47:25.811Z,101215.50
2023-09-30T00:49:54.993Z,101217.44
2023-09-30T00:52:23.936Z,101220.66
2023-09-30T00:54:54.229Z,101195.53
2023-09-30T00:57:23.173Z,101218.25
2023-09-30T00:59:52.424Z,101214.34
2023-09-30T01:02:20.873Z,101205.63
2023-09-30T01:04:48.926Z,101208.84
2023-09-30T01:07:18.604Z,101208.66
2023-09-30T01:09:47.733Z,101212.75
2023-09-30T01:12:15.718Z,101208.66
2023-09-30T01:14:43.914Z,101216.63
2023-09-30T01:17:15.230Z,101188.91
2023-09-30T01:19:46.462Z,101209.50
2023-09-30T01:22:14.723Z,101198.16
2023-09-30T01:24:43.944Z,101213.38
2023-09-30T01:27:12.154Z,101201.25
2023-09-30T01:29:40.209Z,101202.97
2023-09-30T01:32:10.368Z,101191.63
2023-09-30T01:34:38.631Z,101193.44
2023-09-30T01:37:07.549Z,101186.63
2023-09-30T01:39:35.647Z,101183.22
2023-09-30T01:42:04.376Z,101180.63
2023-09-30T01:44:34.837Z,101183.72
2023-09-30T01:47:04.477Z,101189.38
2023-09-30T01:49:32.989Z,101179.19
2023-09-30T01:52:01.051Z,101182.25
2023-09-30T01:54:29.049Z,101161.69
2023-09-30T01:56:57.315Z,101185.00
2023-09-30T01:59:26.622Z,101178.69
2023-09-30T02:01:54.962Z,101179.81
2023-09-30T02:04:23.081Z,101174.31
2023-09-30T02:06:51.413Z,101161.22
2023-09-30T02:09:19.948Z,101163.31
2023-09-30T02:11:49.280Z,101164.59
2023-09-30T02:14:17.252Z,101170.41
2023-09-30T02:16:45.312Z,101151.81
2023-09-30T02:19:14.789Z,101158.94
2023-09-30T02:21:42.873Z,101170.41
2023-09-30T02:24:11.513Z,101163.78
2023-09-30T02:26:40.524Z,101156.16
2023-09-30T02:29:09.167Z,101164.78
2023-09-30T02:31:37.532Z,101163.78
2023-09-30T02:34:05.434Z,101160.22
2023-09-30T02:36:33.708Z,101157.97
2023-09-30T02:39:02.566Z,101157.44
2023-09-30T02:41:30.845Z,101149.34
2023-09-30T02:43:59.267Z,101148.56
2023-09-30T02:46:29.598Z,101152.91
2023-09-30T02:48:58.169Z,101141.59
2023-09-30T02:51:26.802Z,101143.50
2023-09-30T02:53:58.580Z,101140.44
2023-09-30T02:56:27.664Z,101150.63
2023-09-30T02:58:56.804Z,101151.13
2023-09-30T03:01:25.493Z,101134.59
2023-09-30T03:03:53.636Z,101150.50
2023-09-30T03:06:22.366Z,101153.25
2023-09-30T03:08:50.819Z,101146.75
2023-09-30T03:11:23.973Z,101147.25
2023-09-30T03:13:52.313Z,101126.53
2023-09-30T03:16:21.520Z,101143.50
2023-09-30T03:18:50.644Z,101141.91
2023-09-30T03:21:18.958Z,101157.28
2023-09-30T03:23:48.134Z,101140.75
2023-09-30T03:26:16.859Z,101129.56
2023-09-30T03:28:45.154Z,101141.56
2023-09-30T03:31:13.256Z,101146.28
2023-09-30T03:33:41.338Z,101150.16
2023-09-30T03:36:10.807Z,101123.13
2023-09-30T03:38:40.745Z,101146.28
2023-09-30T03:41:09.829Z,101148.22
2023-09-30T03:43:42.195Z,101145.47
2023-09-30T03:46:10.895Z,101146.94
2023-09-30T03:48:40.980Z,101143.84
2023-09-30T03:51:16.341Z,101156.63
2023-09-30T03:53:46.377Z,101155.69
2023-09-30T03:56:14.716Z,101152.13
2023-09-30T03:58:43.833Z,101131.53
2023-09-30T04:01:12.689Z,101152.59
2023-09-30T04:03:42.244Z,101132.34
2023-09-30T04:06:10.639Z,101146.28
2023-09-30T04:08:39.522Z,101153.41
2023-09-30T04:11:07.967Z,101141.44
2023-09-30T04:13:36.270Z,101147.06
2023-09-30T04:16:04.394Z,101144.31
2023-09-30T04:18:32.733Z,101145.13
2023-09-30T04:21:00.951Z,101114.88
2023-09-30T04:23:29.224Z,101150.00
2023-09-30T04:25:57.219Z,101136.88
2023-09-30T04:28:25.993Z,101137.22
2023-09-30T04:30:54.910Z,101144.47
2023-09-30T04:33:26.098Z,101145.47
2023-09-30T04:35:54.161Z,101133.31
2023-09-30T04:38:22.676Z,101149.34
2023-09-30T04:40:52.697Z,101157.97
2023-09-30T04:43:20.821Z,101158.94
2023-09-30T04:45:51.216Z,101167.84
2023-09-30T04:48:19.947Z,101163.28
2023-09-30T04:50:48.550Z,101171.72
2023-09-30T04:53:18.688Z,101173.66
2023-09-30T04:58:14.412Z,101155.38
2023-09-30T05:00:42.533Z,101168.00
2023-09-30T05:03:11.025Z,101179.03
2023-09-30T05:05:39.353Z,101165.59
2023-09-30T05:08:08.151Z,101189.22
2023-09-30T05:10:36.074Z,101178.69
2023-09-30T05:13:04.397Z,101180.50
2023-09-30T05:15:34.077Z,101186.63
2023-09-30T05:18:02.316Z,101189.72
2023-09-30T05:20:30.660Z,101189.91
2023-09-30T05:22:59.210Z,101195.88
2023-09-30T05:25:29.300Z,101193.47
2023-09-30T05:27:58.050Z,101182.59
2023-09-30T05:30:26.837Z,101213.22
2023-09-30T05:32:55.719Z,101176.31
2023-09-30T05:35:25.283Z,101205.59
2023-09-30T05:37:54.349Z,101155.25
2023-09-30T05:40:31.871Z,101206.56
2023-09-30T05:43:00.835Z,101213.22
2023-09-30T05:45:32.866Z,101211.28
2023-09-30T05:48:06.019Z,101207.38
2023-09-30T05:50:35.843Z,101203.81
2023-09-30T05:53:06.100Z,101194.44
2023-09-30T05:55:34.871Z,101198.66
2023-09-30T05:58:03.258Z,101209.00
2023-09-30T06:00:36.826Z,101206.91
2023-09-30T06:03:09.045Z,101210.13
2023-09-30T06:05:41.844Z,101214.03
2023-09-30T06:08:17.627Z,101216.78
2023-09-30T06:10:45.751Z,101225.06
2023-09-30T06:13:15.658Z,101223.44
2023-09-30T06:15:45.197Z,101230.56
2023-09-30T06:18:15.266Z,101230.09
2023-09-30T06:20:43.878Z,101229.28
2023-09-30T06:23:11.924Z,101227.31
2023-09-30T06:25:41.421Z,101225.22
2023-09-30T06:28:10.080Z,101233.97
2023-09-30T06:30:38.660Z,101221.31
2023-09-30T06:33:07.421Z,101222.47
2023-09-30T06:35:39.175Z,101249.69
2023-09-30T06:38:10.381Z,101171.06
2023-09-30T06:40:41.326Z,101260.38
2023-09-30T06:43:10.412Z,101258.44
2023-09-30T06:45:43.421Z,101263.94
2023-09-30T06:48:16.522Z,101264.75
2023-09-30T06:50:50.037Z,101253.56
2023-09-30T06:53:19.819Z,101282.91
2023-09-30T06:55:48.468Z,101272.34
2023-09-30T06:58:22.924Z,101285.16
2023-09-30T07:00:52.359Z,101297.16
2023-09-30T07:03:24.129Z,101297.97
2023-09-30T07:05:55.839Z,101299.91
2023-09-30T07:08:24.195Z,101306.22
2023-09-30T07:10:54.309Z,101316.28
2023-09-30T07:13:22.527Z,101310.28
2023-09-30T07:15:51.765Z,101312.53
2023-09-30T07:18:20.423Z,101318.22
2023-09-30T07:20:49.814Z,101320.16
2023-09-30T07:23:20.362Z,101324.88
2023-09-30T07:25:49.233Z,101326.97
2023-09-30T07:28:17.399Z,101326.97
2023-09-30T07:30:46.076Z,101325.19
2023-09-30T07:33:14.311Z,101335.09
2023-09-30T07:35:42.478Z,101342.22
2023-09-30T07:38:11.132Z,101334.28
2023-09-30T07:40:39.725Z,101314.47
2023-09-30T07:43:07.908Z,101346.13
2023-09-30T07:45:35.862Z,101343.03
2023-09-30T07:48:06.929Z,101341.72
2023-09-30T07:50:35.555Z,101351.78
2023-09-30T07:53:03.985Z,101346.75
2023-09-30T07:55:32.291Z,101353.91
2023-09-30T07:58:01.635Z,101361.53
2023-09-30T08:00:29.746Z,101333.75
2023-09-30T08:02:57.895Z,101357.31
2023-09-30T08:05:26.314Z,101324.53
2023-09-30T08:07:54.689Z,101352.59
2023-09-30T08:10:22.621Z,101360.72
2023-09-30T08:12:51.356Z,101363.97
2023-09-30T08:15:19.776Z,101360.72
2023-09-30T08:17:48.030Z,101360.72
2023-09-30T08:20:16.275Z,101326.97
2023-09-30T08:22:44.304Z,101339.97
2023-09-30T08:25:12.458Z,101362.34
2023-09-30T08:27:41.030Z,101365.91
2023-09-30T08:30:09.698Z,101369.16
2023-09-30T08:32:38.155Z,101348.91
2023-09-30T08:35:06.780Z,101371.28
2023-09-30T08:37:34.961Z,101359.25
2023-09-30T08:40:06.219Z,101374.97
2023-09-30T08:42:36.150Z,101366.22
2023-09-30T08:45:11.522Z,101377.75
2023-09-30T08:47:41.849Z,101372.22
2023-09-30T08:50:11.907Z,101341.75
2023-09-30T08:52:41.521Z,101375.78
2023-09-30T08:55:10.813Z,101359.09
2023-09-30T08:57:41.954Z,101378.38
2023-09-30T09:00:15.763Z,101382.13
2023-09-30T09:02:44.483Z,101368.81
2023-09-30T09:05:13.092Z,101387.44
2023-09-30T09:07:41.713Z,101362.97
2023-09-30T09:10:11.859Z,101380.31
2023-09-30T09:12:41.652Z,101394.91
2023-09-30T09:15:23.296Z,101391.22
2023-09-30T09:17:53.345Z,101394.44
2023-09-30T09:20:24.046Z,101377.75
2023-09-30T09:22:55.272Z,101382.59
2023-09-30T09:25:24.793Z,101354.56
2023-09-30T09:27:55.323Z,101385.84
2023-09-30T09:30:27.937Z,101387.44
2023-09-30T09:33:06.585Z,101381.47
2023-09-30T09:35:36.587Z,101392.16
2023-09-30T09:38:06.401Z,101387.63
2023-09-30T09:40:41.872Z,101394.91
2023-09-30T09:43:12.307Z,101390.06
2023-09-30T09:45:40.426Z,101392.81
2023-09-30T09:48:09.130Z,101391.34
2023-09-30T09:50:37.630Z,101384.22
2023-09-30T09:53:06.321Z,101382.09
2023-09-30T09:55:35.364Z,101370.44
2023-09-30T09:58:04.886Z,101383.38
2023-09-30T10:00:35.288Z,101385.81
2023-09-30T10:03:04.488Z,101379.00
2023-09-30T10:05:33.191Z,101384.66
2023-09-30T10:08:06.601Z,101384.38
2023-09-30T10:10:41.370Z,101385.47
2023-09-30T10:13:10.002Z,101367.84
2023-09-30T10:15:41.468Z,101377.72
2023-09-30T10:18:14.564Z,101373.81
2023-09-30T10:20:50.616Z,101365.69
2023-09-30T10:23:18.750Z,101374.63
2023-09-30T10:25:51.252Z,101377.84
2023-09-30T10:28:39.523Z,101304.28
2023-09-30T10:31:26.444Z,101366.31
2023-09-30T10:34:03.741Z,101368.72
2023-09-30T10:36:35.625Z,101349.44
2023-09-30T10:39:04.722Z,101365.63
2023-09-30T10:41:47.862Z,101362.56
2023-09-30T10:44:27.885Z,101365.63
2023-09-30T10:46:58.966Z,101346.22
2023-09-30T10:49:27.665Z,101364.81
2023-09-30T10:52:02.913Z,101354.59
2023-09-30T10:54:34.900Z,101359.13
2023-09-30T10:57:05.198Z,101361.91
2023-09-30T10:59:33.893Z,101283.31
2023-09-30T11:02:02.700Z,101351.66
2023-09-30T11:04:31.377Z,101345.84
2023-09-30T11:07:02.420Z,101357.19
2023-09-30T11:09:31.507Z,101352.00
2023-09-30T11:11:59.699Z,101350.19
2023-09-30T11:14:30.597Z,101351.81
2023-09-30T11:17:01.030Z,101352.31
2023-09-30T11:19:47.513Z,101347.25
2023-09-30T11:22:17.225Z,101348.88
2023-09-30T11:24:47.350Z,101337.19
2023-09-30T11:27:26.243Z,101329.59
2023-09-30T11:29:54.467Z,101347.09
2023-09-30T11:32:28.636Z,101336.97
2023-09-30T11:34:56.963Z,101340.09
2023-09-30T11:37:25.244Z,101324.38
2023-09-30T11:39:54.310Z,101320.75
2023-09-30T11:42:22.618Z,101328.03
2023-09-30T11:44:51.593Z,101322.19
2023-09-30T11:47:31.356Z,101326.59
2023-09-30T11:49:59.593Z,101315.88
2023-09-30T11:52:30.417Z,101313.59
2023-09-30T11:54:59.403Z,101322.00
2023-09-30T11:57:27.618Z,101325.91
2023-09-30T11:59:56.128Z,101329.66
2023-09-30T12:02:24.445Z,101315.56
2023-09-30T12:04:52.855Z,101310.16
2023-09-30T12:07:21.126Z,101314.06
2023-09-30T12:09:49.393Z,101320.22
2023-09-30T12:12:18.150Z,101310.31
2023-09-30T12:14:46.157Z,101305.94
2023-09-30T12:17:15.860Z,101308.03
2023-09-30T12:19:44.160Z,101293.59
2023-09-30T12:22:13.021Z,101293.59
2023-09-30T12:24:41.623Z,101297.47
2023-09-30T12:27:10.524Z,101306.53
2023-09-30T12:29:40.237Z,101293.88
2023-09-30T12:32:09.853Z,101290.31
2023-09-30T12:34:39.653Z,101290.78
2023-09-30T12:37:08.792Z,101278.81
2023-09-30T12:39:38.160Z,101288.03
2023-09-30T12:42:10.371Z,101251.88
2023-09-30T12:44:38.646Z,101294.69
2023-09-30T12:47:07.885Z,101274.56
2023-09-30T12:49:35.986Z,101272.59
2023-09-30T12:52:04.072Z,101280.06
2023-09-30T12:54:33.670Z,101282.03
2023-09-30T12:57:02.150Z,101274.09
2023-09-30T12:59:30.054Z,101273.28
2023-09-30T13:01:58.057Z,101279.28
2023-09-30T13:04:26.746Z,101280.41
2023-09-30T13:06:55.186Z,101274.44
2023-09-30T13:09:23.237Z,101267.88
2023-09-30T13:11:51.088Z,101271.78
2023-09-30T13:14:19.013Z,101272.59
2023-09-30T13:16:47.048Z,101262.25
2023-09-30T13:19:17.245Z,101258.34
2023-09-30T13:21:46.013Z,101264.78
2023-09-30T13:24:14.051Z,101256.03
2023-09-30T13:26:42.354Z,101259.75
2023-09-30T13:29:14.325Z,101257.34
2023-09-30T13:31:42.256Z,101262.53
2023-09-30T13:34:10.671Z,101250.84
2023-09-30T13:36:38.879Z,101250.31
2023-09-30T13:39:07.053Z,101244.00
2023-09-30T13:41:37.067Z,101245.94
2023-09-30T13:44:06.506Z,101239.75
2023-09-30T13:46:34.725Z,101237.31
2023-09-30T13:49:03.677Z,101231.00
2023-09-30T13:51:31.680Z,101219.81
2023-09-30T13:53:59.890Z,101232.16
2023-09-30T13:56:28.964Z,101224.66
2023-09-30T13:58:59.746Z,101220.28
2023-09-30T14:01:28.463Z,101218.34
2023-09-30T14:03:58.490Z,101219.16
2023-09-30T14:06:27.421Z,101217.53
2023-09-30T14:08:55.605Z,101218.69
2023-09-30T14:11:23.537Z,101212.81
2023-09-30T14:13:51.987Z,101209.56
2023-09-30T14:16:20.425Z,101226.13
2023-09-30T14:18:50.705Z,101221.75
2023-09-30T14:21:20.194Z,101211.06
2023-09-30T14:23:48.670Z,101199.88
2023-09-30T14:26:16.533Z,101211.84
2023-09-30T14:28:46.305Z,101209.44
2023-09-30T14:31:15.542Z,101207.13
2023-09-30T14:33:43.676Z,101202.75
2023-09-30T14:36:12.034Z,101200.00
2023-09-30T14:38:40.141Z,101200.81
2023-09-30T14:41:09.943Z,101203.56
2023-09-30T14:43:37.925Z,101194.47
2023-09-30T14:46:06.538Z,101199.19
2023-09-30T14:48:34.629Z,101188.97
2023-09-30T14:51:04.174Z,101194.13
2023-09-30T14:53:32.781Z,101191.38
2023-09-30T14:56:00.979Z,101192.19
2023-09-30T14:58:28.891Z,101191.72
2023-09-30T15:00:56.943Z,101186.66
2023-09-30T15:03:24.983Z,101194.47
2023-09-30T15:05:59.671Z,101182.97
2023-09-30T15:08:27.571Z,101183.31
2023-09-30T15:10:56.079Z,101180.56
2023-09-30T15:13:24.254Z,101176.19
2023-09-30T15:15:52.376Z,101182.81
2023-09-30T15:18:20.455Z,101178.44
2023-09-30T15:20:51.438Z,101172.94
2023-09-30T15:23:19.517Z,101182.56
2023-09-30T15:25:47.781Z,101178.63
2023-09-30T15:28:15.826Z,101170.34
2023-09-30T15:30:44.031Z,101176.69
2023-09-30T15:33:12.050Z,101171.50
2023-09-30T15:35:40.778Z,101163.88
2023-09-30T15:38:08.603Z,101165.50
2023-09-30T15:40:55.341Z,101168.75
2023-09-30T15:43:24.218Z,101171.81
2023-09-30T15:45:52.781Z,101165.97
2023-09-30T15:48:21.209Z,101175.38
2023-09-30T15:50:49.844Z,101174.28
2023-09-30T15:53:17.952Z,101169.06
2023-09-30T15:55:46.056Z,101167.78
2023-09-30T15:58:13.994Z,101159.38
2023-09-30T16:00:43.427Z,101168.94
2023-09-30T16:03:12.629Z,101155.13
2023-09-30T16:05:41.142Z,101159.84
2023-09-30T16:08:10.402Z,101159.03
2023-09-30T16:10:38.876Z,101156.28
2023-09-30T16:13:09.969Z,101157.44
2023-09-30T16:15:42.300Z,101154.97
2023-09-30T16:18:10.979Z,101150.28
2023-09-30T16:20:39.189Z,101158.56
2023-09-30T16:23:07.099Z,101150.28
2023-09-30T16:25:37.872Z,101147.38
2023-09-30T16:28:06.870Z,101148.19
2023-09-30T16:30:36.564Z,101143.81
2023-09-30T16:33:04.765Z,101138.81
2023-09-30T16:35:32.684Z,101141.25
2023-09-30T16:38:01.111Z,101147.09
2023-09-30T16:40:29.509Z,101146.75
2023-09-30T16:42:58.122Z,101138.97
2023-09-30T16:45:26.723Z,101127.38
2023-09-30T16:47:55.618Z,101140.44
2023-09-30T16:50:23.737Z,101154.56
2023-09-30T16:52:51.529Z,101150.66
2023-09-30T16:55:19.565Z,101149.06
2023-09-30T16:57:47.534Z,101148.78
2023-09-30T17:00:16.434Z,101160.44
2023-09-30T17:02:44.507Z,101152.84
2023-09-30T17:05:13.156Z,101160.78
2023-09-30T17:07:41.402Z,101167.75
2023-09-30T17:10:13.365Z,101166.16
2023-09-30T17:12:41.450Z,101171.19
2023-09-30T17:15:10.315Z,101165.69
2023-09-30T17:17:38.942Z,101156.66
2023-09-30T17:20:08.912Z,101168.31
2023-09-30T17:22:36.947Z,101160.03
2023-09-30T17:25:05.566Z,101166.19
2023-09-30T17:27:33.829Z,101161.81
2023-09-30T17:30:01.858Z,101156.19
2023-09-30T17:32:29.969Z,101164.94
2023-09-30T17:35:00.067Z,101165.59
2023-09-30T17:37:30.754Z,101155.44
2023-09-30T17:39:59.808Z,101164.47
2023-09-30T17:42:28.873Z,101169.16
2023-09-30T17:44:57.591Z,101168.66
2023-09-30T17:47:27.385Z,101150.56
2023-09-30T17:49:55.458Z,101175.34
2023-09-30T17:52:24.036Z,101189.81
2023-09-30T17:54:52.561Z,101182.34
2023-09-30T17:57:20.884Z,101177.50
2023-09-30T17:59:49.018Z,101175.03
2023-09-30T18:02:16.986Z,101186.59
2023-09-30T18:04:45.125Z,101180.44
2023-09-30T18:07:13.603Z,101189.97
2023-09-30T18:09:41.483Z,101187.22
2023-09-30T18:12:09.570Z,101189.50
2023-09-30T18:14:37.455Z,101183.53
2023-09-30T18:17:05.579Z,101192.28
2023-09-30T18:19:33.515Z,101182.38
2023-09-30T18:22:01.418Z,101189.50
2023-09-30T18:24:29.436Z,101188.72
2023-09-30T18:26:57.438Z,101183.66
2023-09-30T18:29:26.365Z,101192.75
2023-09-30T18:31:54.846Z,101189.50
2023-09-30T18:34:25.788Z,101197.78
2023-09-30T18:36:53.947Z,101198.13
2023-09-30T18:39:25.726Z,101197.63
2023-09-30T18:41:55.115Z,101197.47
2023-09-30T18:44:23.073Z,101202.97
2023-09-30T18:46:52.912Z,101193.44
2023-09-30T18:49:21.048Z,101203.97
2023-09-30T18:51:51.533Z,101196.03
2023-09-30T18:54:19.623Z,101203.16
2023-09-30T18:56:47.878Z,101197.63
2023-09-30T18:59:21.939Z,101205.09
2023-09-30T19:01:50.426Z,101206.25
2023-09-30T19:04:19.593Z,101201.88
2023-09-30T19:06:47.764Z,101203.81
2023-09-30T19:09:16.130Z,101197.63
2023-09-30T19:11:45.856Z,101203.16
2023-09-30T19:14:15.133Z,101196.84
2023-09-30T19:16:44.867Z,101199.94
2023-09-30T19:19:13.048Z,101203.16
2023-09-30T19:21:41.415Z,101201.53
2023-09-30T19:24:10.290Z,101202.22
2023-09-30T19:26:38.412Z,101198.44
2023-09-30T19:29:06.841Z,101196.19
2023-09-30T19:31:35.084Z,101199.06
2023-09-30T19:34:03.352Z,101202.97
2023-09-30T19:36:31.533Z,101202.69
2023-09-30T19:38:59.560Z,101173.88
2023-09-30T19:41:27.676Z,101201.38
2023-09-30T19:43:55.660Z,101206.41
2023-09-30T19:46:25.347Z,101208.03
2023-09-30T19:48:53.848Z,101209.16
2023-09-30T19:51:26.107Z,101199.94
2023-09-30T19:53:53.917Z,101200.91
2023-09-30T19:56:21.831Z,101204.13
2023-09-30T19:58:49.854Z,101206.53
2023-09-30T20:01:21.237Z,101204.94
2023-09-30T20:03:49.837Z,101209.63
2023-09-30T20:06:19.148Z,101215.63
2023-09-30T20:08:49.367Z,101212.06
2023-09-30T20:11:24.729Z,101207.34
2023-09-30T20:13:53.458Z,101202.97
2023-09-30T20:16:22.278Z,101199.06
2023-09-30T20:18:50.543Z,101199.41
2023-09-30T20:21:18.798Z,101196.31
2023-09-30T20:23:47.728Z,101198.28
2023-09-30T20:26:23.050Z,101189.88
2023-09-30T20:28:51.979Z,101201.84
2023-09-30T20:31:20.180Z,101199.91
2023-09-30T20:33:49.981Z,101183.38
2023-09-30T20:36:18.065Z,101198.78
2023-09-30T20:38:46.095Z,101197.97
2023-09-30T20:41:14.238Z,101194.41
2023-09-30T20:43:42.617Z,101199.06
2023-09-30T20:46:10.826Z,101196.31
2023-09-30T20:48:39.295Z,101190.66
2023-09-30T20:51:08.563Z,101191.66
2023-09-30T20:53:37.326Z,101195.22
2023-09-30T20:56:11.923Z,101196.31
2023-09-30T20:58:40.105Z,101193.44
2023-09-30T21:01:12.437Z,101205.75
2023-09-30T21:03:40.597Z,101202.19
2023-09-30T21:06:09.821Z,101191.66
2023-09-30T21:08:39.404Z,101198.59
2023-09-30T21:11:08.286Z,101204.47
2023-09-30T21:13:36.586Z,101212.41
2023-09-30T21:16:05.300Z,101204.94
2023-09-30T21:18:36.403Z,101199.28
2023-09-30T21:21:04.480Z,101209.47
2023-09-30T21:23:32.487Z,101211.75
2023-09-30T21:26:00.541Z,101207.06
2023-09-30T21:28:28.790Z,101206.25
2023-09-30T21:30:56.650Z,101201.53
2023-09-30T21:33:24.545Z,101196.03
2023-09-30T21:35:59.026Z,101201.53
2023-09-30T21:38:27.135Z,101192.47
2023-09-30T21:40:55.163Z,101186.94
2023-09-30T21:43:23.264Z,101176.44
2023-09-30T21:45:51.441Z,101186.47
2023-09-30T21:48:19.267Z,101183.59
2023-09-30T21:50:47.191Z,101187.16
2023-09-30T21:53:16.417Z,101191.84
2023-09-30T21:55:44.993Z,101186.34
2023-09-30T21:58:12.978Z,101183.59
2023-09-30T22:00:41.732Z,101187.97
2023-09-30T22:03:12.195Z,101194.13
2023-09-30T22:05:42.211Z,101198.00
2023-09-30T22:08:10.218Z,101196.25
2023-09-30T22:10:38.407Z,101203.88
2023-09-30T22:13:06.475Z,101200.78
2023-09-30T22:15:34.391Z,101190.06
2023-09-30T22:18:04.090Z,101199.63
2023-09-30T22:20:33.882Z,101197.69
2023-09-30T22:23:05.226Z,101199.28
2023-09-30T22:25:36.597Z,101191.84
2023-09-30T22:28:09.297Z,101188.25
2023-09-30T22:30:38.063Z,101195.41
2023-09-30T22:33:07.556Z,101187.47
2023-09-30T22:35:36.485Z,101189.75
2023-09-30T22:38:04.780Z,101191.84
2023-09-30T22:40:32.624Z,101184.69
2023-09-30T22:43:01.023Z,101187.16
2023-09-30T22:45:30.120Z,101186.34
2023-09-30T22:47:58.399Z,101161.41
2023-09-30T22:50:27.313Z,101184.38
2023-09-30T22:52:56.630Z,101189.09
2023-09-30T22:55:25.378Z,101173.06
2023-09-30T22:57:55.304Z,101178.25
2023-09-30T23:00:32.023Z,101178.06
2023-09-30T23:02:59.980Z,101179.53
2023-09-30T23:05:29.471Z,101180.31
2023-09-30T23:07:57.774Z,101168.03
2023-09-30T23:10:26.082Z,101176.75
2023-09-30T23:12:54.134Z,101172.38
2023-09-30T23:15:23.319Z,101171.25
2023-09-30T23:17:54.107Z,101166.06
2023-09-30T23:20:23.232Z,101174.34
2023-09-30T23:22:53.960Z,101173.53
2023-09-30T23:25:36.320Z,101167.69
2023-09-30T23:28:05.008Z,101164.94
2023-09-30T23:30:35.501Z,101171.59
2023-09-30T23:33:06.610Z,101163.97
2023-09-30T23:35:36.268Z,101168.34
2023-09-30T23:38:05.088Z,101167.88
2023-09-30T23:40:39.683Z,101162.69
2023-09-30T23:43:09.148Z,101167.88
2023-09-30T23:45:39.129Z,101163.00
2023-09-30T23:48:08.973Z,101167.38
2023-09-30T23:50:39.048Z,101161.88
2023-09-30T23:53:07.500Z,101163.81
2023-09-30T23:55:39.950Z,101167.03
2023-09-30T23:58:11.495Z,101163.00
